createdAt,value
2022-08-31T00:00:37.849Z,39.60
2022-08-31T00:03:49.595Z,39.70
2022-08-31T00:06:42.585Z,39.70
2022-08-31T00:09:35.622Z,39.70
2022-08-31T00:12:28.821Z,39.70
2022-08-31T00:15:25.584Z,39.70
2022-08-31T00:18:20.385Z,39.70
2022-08-31T00:21:15.410Z,39.70
2022-08-31T00:24:09.039Z,39.70
2022-08-31T00:27:02.810Z,39.70
2022-08-31T00:29:55.622Z,39.70
2022-08-31T00:32:48.365Z,39.70
2022-08-31T00:35:43.433Z,39.70
2022-08-31T00:38:38.620Z,39.80
2022-08-31T00:41:32.331Z,39.70
2022-08-31T00:44:26.523Z,39.80
2022-08-31T00:47:19.722Z,39.80
2022-08-31T00:50:15.590Z,39.90
2022-08-31T00:53:08.816Z,39.90
2022-08-31T00:56:03.212Z,39.80
2022-08-31T00:58:56.856Z,39.90
2022-08-31T01:01:50.072Z,39.90
2022-08-31T01:04:43.636Z,39.90
2022-08-31T01:07:37.508Z,39.90
2022-08-31T01:10:33.877Z,39.80
2022-08-31T01:13:28.113Z,39.90
2022-08-31T01:16:27.342Z,39.90
2022-08-31T01:19:29.524Z,39.90
2022-08-31T01:22:30.013Z,39.90
2022-08-31T01:25:25.132Z,39.90
2022-08-31T01:28:27.415Z,40.00
2022-08-31T01:31:24.188Z,39.90
2022-08-31T01:34:17.488Z,40.00
2022-08-31T01:37:11.197Z,39.90
2022-08-31T01:40:07.658Z,39.90
2022-08-31T01:43:02.012Z,40.00
2022-08-31T01:45:54.942Z,40.00
2022-08-31T01:48:49.187Z,40.00
2022-08-31T01:51:43.172Z,40.60
2022-08-31T01:54:36.884Z,40.00
2022-08-31T01:57:34.094Z,40.00
2022-08-31T02:00:29.653Z,39.90
2022-08-31T02:03:22.910Z,40.00
2022-08-31T02:06:15.991Z,40.10
2022-08-31T02:09:11.610Z,40.10
2022-08-31T02:12:05.397Z,40.10
2022-08-31T02:14:58.856Z,40.00
2022-08-31T02:17:53.420Z,40.00
2022-08-31T02:20:46.615Z,40.10
2022-08-31T02:23:40.184Z,40.00
2022-08-31T02:26:33.941Z,40.00
2022-08-31T02:29:26.727Z,40.00
2022-08-31T02:32:21.106Z,40.00
2022-08-31T02:35:15.529Z,40.10
2022-08-31T02:38:09.637Z,40.10
2022-08-31T02:41:03.515Z,40.10
2022-08-31T02:43:56.911Z,40.10
2022-08-31T02:46:49.883Z,40.10
2022-08-31T02:49:42.692Z,40.10
2022-08-31T02:52:37.864Z,40.10
2022-08-31T02:55:30.774Z,40.10
2022-08-31T02:58:24.170Z,40.70
2022-08-31T03:01:17.807Z,40.10
2022-08-31T03:04:11.044Z,40.10
2022-08-31T03:07:04.537Z,40.10
2022-08-31T03:10:00.704Z,40.10
2022-08-31T03:12:54.356Z,40.10
2022-08-31T03:15:47.679Z,40.10
2022-08-31T03:18:40.824Z,40.10
2022-08-31T03:21:34.219Z,40.10
2022-08-31T03:24:27.944Z,40.10
2022-08-31T03:27:22.554Z,40.10
2022-08-31T03:30:18.221Z,40.10
2022-08-31T03:33:12.773Z,40.20
2022-08-31T03:36:06.183Z,40.20
2022-08-31T03:39:00.297Z,40.20
2022-08-31T03:41:53.903Z,40.20
2022-08-31T03:44:49.382Z,40.20
2022-08-31T03:47:44.613Z,40.20
2022-08-31T03:50:38.723Z,40.20
2022-08-31T03:53:31.736Z,40.30
2022-08-31T03:56:25.102Z,40.20
2022-08-31T03:59:17.885Z,40.20
2022-08-31T04:02:12.310Z,40.30
2022-08-31T04:05:06.943Z,40.20
2022-08-31T04:08:02.629Z,40.20
2022-08-31T04:10:55.923Z,40.20
2022-08-31T04:13:49.525Z,40.20
2022-08-31T04:16:43.802Z,40.30
2022-08-31T04:19:38.688Z,40.30
2022-08-31T04:22:32.064Z,40.30
2022-08-31T04:25:24.798Z,40.30
2022-08-31T04:28:17.654Z,40.30
2022-08-31T04:31:10.959Z,40.30
2022-08-31T04:34:07.816Z,40.30
2022-08-31T04:37:03.708Z,40.30
2022-08-31T04:39:59.189Z,40.40
2022-08-31T04:42:53.207Z,40.40
2022-08-31T04:45:47.214Z,40.30
2022-08-31T04:48:41.833Z,40.40
2022-08-31T04:51:35.953Z,40.30
2022-08-31T04:54:31.275Z,40.40
2022-08-31T04:57:24.824Z,40.50
2022-08-31T05:00:18.188Z,40.40
2022-08-31T05:03:11.993Z,40.40
2022-08-31T05:06:05.495Z,40.40
2022-08-31T05:09:00.668Z,40.40
2022-08-31T05:11:56.465Z,40.50
2022-08-31T05:14:49.774Z,40.40
2022-08-31T05:17:42.771Z,40.50
2022-08-31T05:20:35.883Z,40.40
2022-08-31T05:23:29.032Z,40.60
2022-08-31T05:26:26.818Z,40.70
2022-08-31T05:29:23.685Z,40.70
2022-08-31T05:32:17.009Z,40.60
2022-08-31T05:35:12.099Z,40.50
2022-08-31T05:38:04.932Z,40.90
2022-08-31T05:41:00.289Z,40.50
2022-08-31T05:43:54.143Z,40.40
2022-08-31T05:46:57.230Z,40.70
2022-08-31T05:49:56.942Z,40.60
2022-08-31T05:52:50.320Z,40.60
2022-08-31T05:55:44.153Z,40.60
2022-08-31T05:58:37.710Z,40.60
2022-08-31T06:01:33.276Z,40.60
2022-08-31T06:04:29.131Z,40.70
2022-08-31T06:07:21.775Z,40.60
2022-08-31T06:10:16.247Z,40.70
2022-08-31T06:13:10.422Z,40.80
2022-08-31T06:16:04.915Z,40.50
2022-08-31T06:18:58.842Z,40.60
2022-08-31T06:21:53.517Z,40.50
2022-08-31T06:24:47.221Z,40.70
2022-08-31T06:27:39.802Z,41.30
2022-08-31T06:30:33.259Z,40.60
2022-08-31T06:33:25.913Z,41.00
2022-08-31T06:36:21.804Z,40.90
2022-08-31T06:39:17.931Z,40.80
2022-08-31T06:42:10.884Z,40.60
2022-08-31T06:45:04.825Z,40.80
2022-08-31T06:48:00.677Z,41.50
2022-08-31T06:50:58.037Z,40.90
2022-08-31T06:53:51.148Z,40.90
2022-08-31T06:56:44.967Z,40.90
2022-08-31T06:59:38.123Z,40.80
2022-08-31T07:02:31.180Z,40.90
2022-08-31T07:05:24.411Z,40.70
2022-08-31T07:08:18.466Z,41.00
2022-08-31T07:11:14.050Z,40.90
2022-08-31T07:14:10.037Z,41.00
2022-08-31T07:17:03.809Z,40.90
2022-08-31T07:19:57.388Z,40.90
2022-08-31T07:22:51.289Z,40.80
2022-08-31T07:25:44.803Z,40.80
2022-08-31T07:28:43.181Z,40.80
2022-08-31T07:31:44.720Z,40.80
2022-08-31T07:34:38.701Z,41.00
2022-08-31T07:37:50.336Z,41.00
2022-08-31T07:41:00.354Z,40.90
2022-08-31T07:43:59.501Z,40.90
2022-08-31T07:46:55.839Z,40.80
2022-08-31T07:49:51.211Z,40.90
2022-08-31T07:52:47.656Z,41.60
2022-08-31T07:55:45.625Z,40.90
2022-08-31T07:58:40.157Z,41.00
2022-08-31T08:01:36.129Z,41.00
2022-08-31T08:04:31.428Z,41.10
2022-08-31T08:07:25.215Z,40.90
2022-08-31T08:10:21.258Z,40.90
2022-08-31T08:13:13.924Z,41.00
2022-08-31T08:16:07.237Z,41.00
2022-08-31T08:18:59.934Z,41.00
2022-08-31T08:21:55.017Z,41.00
2022-08-31T08:24:48.804Z,41.00
2022-08-31T08:27:42.207Z,41.20
2022-08-31T08:30:34.954Z,41.00
2022-08-31T08:33:29.276Z,41.00
2022-08-31T08:36:22.505Z,41.00
2022-08-31T08:39:20.456Z,41.10
2022-08-31T08:42:17.156Z,41.00
2022-08-31T08:45:11.887Z,41.10
2022-08-31T08:48:12.875Z,41.10
2022-08-31T08:51:14.359Z,41.10
2022-08-31T08:54:12.660Z,41.10
2022-08-31T08:57:13.932Z,41.10
2022-08-31T09:00:11.058Z,41.10
2022-08-31T09:03:07.471Z,41.20
2022-08-31T09:06:07.264Z,41.20
2022-08-31T09:09:34.702Z,41.10
2022-08-31T09:12:38.382Z,41.00
2022-08-31T09:15:53.701Z,41.10
2022-08-31T09:18:52.227Z,41.20
2022-08-31T09:21:48.315Z,41.10
2022-08-31T09:24:41.381Z,41.00
2022-08-31T09:27:47.098Z,41.20
2022-08-31T09:30:52.061Z,41.20
2022-08-31T09:33:50.972Z,41.10
2022-08-31T09:36:44.414Z,41.10
2022-08-31T09:39:37.874Z,41.10
2022-08-31T09:42:33.770Z,41.20
2022-08-31T09:45:38.699Z,41.20
2022-08-31T09:48:51.299Z,41.10
2022-08-31T09:51:44.159Z,41.20
2022-08-31T09:54:54.934Z,41.10
2022-08-31T09:57:54.074Z,41.10
2022-08-31T10:00:52.611Z,41.10
2022-08-31T10:03:47.689Z,41.10
2022-08-31T10:06:49.660Z,41.30
2022-08-31T10:09:47.862Z,41.20
2022-08-31T10:12:47.215Z,41.10
2022-08-31T10:15:43.927Z,41.20
2022-08-31T10:18:47.163Z,41.10
2022-08-31T10:21:52.003Z,41.40
2022-08-31T10:24:49.092Z,41.10
2022-08-31T10:27:48.613Z,41.20
2022-08-31T10:30:48.464Z,41.20
2022-08-31T10:37:53.176Z,41.10
2022-08-31T10:40:51.367Z,41.30
2022-08-31T10:43:49.094Z,41.10
2022-08-31T10:46:43.345Z,41.10
2022-08-31T10:49:39.139Z,41.10
2022-08-31T10:52:35.344Z,41.10
2022-08-31T10:55:33.018Z,41.10
2022-08-31T10:58:37.399Z,41.10
2022-08-31T11:01:38.103Z,41.10
2022-08-31T11:04:58.708Z,41.10
2022-08-31T11:07:59.443Z,42.00
2022-08-31T11:10:54.330Z,41.50
2022-08-31T11:14:06.176Z,42.40
2022-08-31T11:17:19.722Z,41.80
2022-08-31T11:20:40.090Z,42.20
2022-08-31T11:23:59.761Z,42.50
2022-08-31T11:27:00.551Z,43.00
2022-08-31T11:29:58.040Z,42.60
2022-08-31T11:32:55.281Z,42.80
2022-08-31T11:36:07.251Z,42.70
2022-08-31T11:39:26.926Z,42.50
2022-08-31T11:42:53.981Z,42.60
2022-08-31T11:45:47.294Z,42.30
2022-08-31T11:48:59.795Z,42.40
2022-08-31T11:51:56.030Z,42.50
2022-08-31T11:55:06.749Z,42.30
2022-08-31T11:58:28.988Z,43.20
2022-08-31T12:01:36.555Z,42.50
2022-08-31T12:05:00.649Z,42.30
2022-08-31T12:07:56.226Z,42.30
2022-08-31T12:10:56.879Z,42.40
2022-08-31T12:13:55.221Z,42.30
2022-08-31T12:17:09.676Z,42.50
2022-08-31T12:20:12.623Z,42.40
2022-08-31T12:23:37.841Z,42.30
2022-08-31T12:27:01.363Z,42.30
2022-08-31T12:30:19.179Z,42.30
2022-08-31T12:33:16.464Z,42.20
2022-08-31T12:36:16.293Z,42.00
2022-08-31T12:39:13.494Z,42.10
2022-08-31T12:42:11.715Z,41.90
2022-08-31T12:45:06.942Z,41.90
2022-08-31T12:48:08.145Z,41.90
2022-08-31T12:51:11.944Z,41.90
2022-08-31T12:54:39.736Z,41.90
2022-08-31T12:57:51.070Z,42.50
2022-08-31T13:00:45.206Z,41.90
2022-08-31T13:03:40.622Z,41.90
2022-08-31T13:06:35.653Z,41.80
2022-08-31T13:09:34.937Z,41.80
2022-08-31T13:12:28.124Z,41.90
2022-08-31T13:15:26.502Z,41.80
2022-08-31T13:18:27.641Z,41.80
2022-08-31T13:21:22.659Z,41.90
2022-08-31T13:24:16.936Z,41.80
2022-08-31T13:27:18.292Z,41.80
2022-08-31T13:30:18.828Z,41.90
2022-08-31T13:33:24.953Z,41.90
2022-08-31T13:36:32.207Z,41.70
2022-08-31T13:39:28.648Z,41.80
2022-08-31T13:42:31.886Z,41.70
2022-08-31T13:45:30.380Z,41.60
2022-08-31T13:48:30.440Z,41.60
2022-08-31T13:51:26.266Z,41.50
2022-08-31T13:54:28.534Z,41.40
2022-08-31T13:57:28.224Z,41.40
2022-08-31T14:00:36.799Z,41.40
2022-08-31T14:03:45.010Z,41.40
2022-08-31T14:06:42.022Z,41.20
2022-08-31T14:09:36.062Z,41.30
2022-08-31T14:12:37.219Z,41.30
2022-08-31T14:15:41.029Z,41.20
2022-08-31T14:18:45.153Z,41.30
2022-08-31T14:21:44.032Z,41.10
2022-08-31T14:24:37.953Z,41.10
2022-08-31T14:27:36.664Z,40.80
2022-08-31T14:30:35.690Z,41.10
2022-08-31T14:33:28.505Z,41.00
2022-08-31T14:36:23.805Z,40.80
2022-08-31T14:39:18.011Z,40.70
2022-08-31T14:42:17.178Z,40.70
2022-08-31T14:45:18.571Z,40.80
2022-08-31T14:48:14.582Z,40.60
2022-08-31T14:51:08.364Z,40.90
2022-08-31T14:54:02.309Z,40.80
2022-08-31T14:56:56.214Z,40.60
2022-08-31T14:59:52.300Z,40.70
2022-08-31T15:02:49.745Z,40.60
2022-08-31T15:05:47.636Z,40.50
2022-08-31T15:08:41.870Z,40.20
2022-08-31T15:11:37.284Z,40.20
2022-08-31T15:14:34.257Z,40.40
2022-08-31T15:17:29.055Z,40.30
2022-08-31T15:20:23.854Z,40.40
2022-08-31T15:23:17.885Z,40.20
2022-08-31T15:26:16.969Z,39.80
2022-08-31T15:29:13.424Z,40.30
2022-08-31T15:32:11.009Z,40.30
2022-08-31T15:35:05.165Z,40.10
2022-08-31T15:38:03.296Z,40.30
2022-08-31T15:40:57.818Z,40.30
2022-08-31T15:43:52.516Z,40.30
2022-08-31T15:47:03.735Z,40.30
2022-08-31T15:49:57.608Z,40.30
2022-08-31T15:52:55.850Z,40.40
2022-08-31T15:55:51.873Z,40.50
2022-08-31T15:58:54.194Z,40.50
2022-08-31T16:01:47.957Z,40.60
2022-08-31T16:04:43.513Z,40.60
2022-08-31T16:07:39.232Z,40.60
2022-08-31T16:10:33.873Z,40.70
2022-08-31T16:13:29.336Z,40.80
2022-08-31T16:16:23.323Z,40.70
2022-08-31T16:19:34.751Z,40.80
2022-08-31T16:22:30.603Z,40.80
2022-08-31T16:25:29.021Z,40.80
2022-08-31T16:28:23.270Z,40.90
2022-08-31T16:31:18.468Z,40.90
2022-08-31T16:34:14.067Z,40.90
2022-08-31T16:37:08.809Z,41.00
2022-08-31T16:40:01.688Z,40.90
2022-08-31T16:42:55.078Z,41.00
2022-08-31T16:45:49.105Z,40.90
2022-08-31T16:49:02.741Z,41.00
2022-08-31T16:51:55.912Z,41.00
2022-08-31T16:54:52.642Z,40.90
2022-08-31T16:57:46.339Z,40.90
2022-08-31T17:00:41.425Z,40.90
2022-08-31T17:03:35.600Z,40.90
2022-08-31T17:06:32.992Z,40.90
2022-08-31T17:09:28.979Z,40.90
2022-08-31T17:12:25.823Z,40.90
2022-08-31T17:15:20.712Z,41.00
2022-08-31T17:18:13.954Z,41.00
2022-08-31T17:21:07.886Z,41.00
2022-08-31T17:24:06.486Z,41.00
2022-08-31T17:27:07.283Z,41.00
2022-08-31T17:30:01.262Z,41.00
2022-08-31T17:32:54.741Z,40.90
2022-08-31T17:35:47.786Z,40.90
2022-08-31T17:38:40.622Z,41.00
2022-08-31T17:41:37.385Z,41.00
2022-08-31T17:44:30.933Z,41.00
2022-08-31T17:47:26.301Z,41.00
2022-08-31T17:50:21.186Z,40.90
2022-08-31T17:53:14.851Z,41.00
2022-08-31T17:56:07.856Z,41.00
2022-08-31T17:59:02.480Z,41.00
2022-08-31T18:01:58.275Z,40.90
2022-08-31T18:04:52.597Z,41.00
2022-08-31T18:07:46.730Z,40.90
2022-08-31T18:10:39.860Z,41.00
2022-08-31T18:13:32.887Z,41.00
2022-08-31T18:16:28.858Z,40.90
2022-08-31T18:19:27.921Z,41.00
2022-08-31T18:22:21.623Z,41.00
2022-08-31T18:25:14.400Z,41.10
2022-08-31T18:28:07.693Z,41.10
2022-08-31T18:31:07.594Z,41.00
2022-08-31T18:34:04.231Z,41.00
2022-08-31T18:36:58.757Z,41.00
2022-08-31T18:40:09.400Z,41.10
2022-08-31T18:43:20.563Z,41.10
2022-08-31T18:46:13.589Z,40.90
2022-08-31T18:49:12.665Z,40.90
2022-08-31T18:52:07.465Z,41.00
2022-08-31T18:55:01.039Z,40.90
2022-08-31T18:57:55.134Z,40.90
2022-08-31T19:00:57.448Z,40.90
2022-08-31T19:03:51.196Z,40.90
2022-08-31T19:06:46.905Z,40.90
2022-08-31T19:09:40.191Z,40.90
2022-08-31T19:12:33.905Z,40.90
2022-08-31T19:15:35.779Z,40.90
2022-08-31T19:18:30.876Z,40.90
2022-08-31T19:21:26.175Z,40.90
2022-08-31T19:24:22.259Z,40.90
2022-08-31T19:27:16.326Z,40.90
2022-08-31T19:30:12.360Z,40.90
2022-08-31T19:33:07.324Z,40.90
2022-08-31T19:36:04.522Z,40.90
2022-08-31T19:38:59.681Z,40.90
2022-08-31T19:41:55.918Z,40.90
2022-08-31T19:45:22.782Z,40.90
2022-08-31T19:48:03.710Z,40.90
2022-08-31T19:50:57.140Z,40.90
2022-08-31T19:53:52.185Z,40.90
2022-08-31T19:56:46.429Z,41.00
2022-08-31T19:59:41.913Z,40.90
2022-08-31T20:02:36.152Z,40.90
2022-08-31T20:05:30.220Z,41.00
2022-08-31T20:08:24.360Z,41.00
2022-08-31T20:11:22.121Z,41.00
2022-08-31T20:14:16.179Z,41.00
2022-08-31T20:17:11.808Z,41.00
2022-08-31T20:20:05.118Z,41.00
2022-08-31T20:22:59.242Z,41.00
2022-08-31T20:25:53.997Z,41.00
2022-08-31T20:28:47.587Z,41.00
2022-08-31T20:31:43.785Z,41.10
2022-08-31T20:34:38.878Z,41.00
2022-08-31T20:37:32.022Z,41.00
2022-08-31T20:40:28.595Z,41.00
2022-08-31T20:43:23.659Z,41.00
2022-08-31T20:46:31.172Z,41.00
2022-08-31T20:49:26.011Z,41.00
2022-08-31T20:52:20.887Z,41.00
2022-08-31T20:55:14.171Z,41.10
2022-08-31T20:58:08.272Z,41.00
2022-08-31T21:01:05.929Z,41.00
2022-08-31T21:03:59.352Z,41.00
2022-08-31T21:06:53.137Z,41.10
2022-08-31T21:09:48.418Z,41.10
2022-08-31T21:12:41.569Z,40.90
2022-08-31T21:15:35.786Z,41.10
2022-08-31T21:18:31.022Z,41.00
2022-08-31T21:21:24.129Z,41.10
2022-08-31T21:24:20.251Z,41.00
2022-08-31T21:27:17.860Z,40.90
2022-08-31T21:30:12.393Z,41.30
2022-08-31T21:33:05.755Z,41.00
2022-08-31T21:36:03.419Z,41.00
2022-08-31T21:38:58.852Z,41.00
2022-08-31T21:41:52.720Z,41.00
2022-08-31T21:44:47.630Z,41.00
2022-08-31T21:47:41.080Z,40.90
2022-08-31T21:50:35.086Z,41.00
2022-08-31T21:53:27.972Z,41.00
2022-08-31T21:56:22.500Z,41.00
2022-08-31T21:59:19.100Z,41.00
2022-08-31T22:02:15.015Z,41.00
2022-08-31T22:05:09.316Z,40.90
2022-08-31T22:08:03.421Z,41.00
2022-08-31T22:10:59.164Z,41.00
2022-08-31T22:13:54.929Z,41.00
2022-08-31T22:16:50.570Z,41.00
2022-08-31T22:19:45.668Z,41.00
2022-08-31T22:22:39.252Z,41.00
2022-08-31T22:25:33.436Z,41.00
2022-08-31T22:28:27.512Z,41.00
2022-08-31T22:31:22.031Z,41.60
2022-08-31T22:34:17.327Z,41.00
2022-08-31T22:37:14.145Z,41.00
2022-08-31T22:40:18.491Z,41.00
2022-08-31T22:43:12.061Z,41.00
2022-08-31T22:46:04.882Z,41.00
2022-08-31T22:48:58.729Z,41.00
2022-08-31T22:51:51.869Z,41.00
2022-08-31T22:54:46.602Z,41.00
2022-08-31T22:57:39.753Z,41.00
2022-08-31T23:00:34.018Z,41.00
2022-08-31T23:03:27.334Z,41.00
2022-08-31T23:06:23.511Z,41.00
2022-08-31T23:09:20.755Z,41.00
2022-08-31T23:12:15.419Z,41.00
2022-08-31T23:15:15.432Z,41.00
2022-08-31T23:18:10.437Z,41.00
2022-08-31T23:21:04.203Z,41.10
2022-08-31T23:23:59.832Z,41.00
2022-08-31T23:26:53.609Z,41.00
2022-08-31T23:29:51.354Z,41.00
2022-08-31T23:32:44.784Z,41.00
2022-08-31T23:35:40.849Z,41.00
2022-08-31T23:38:35.214Z,41.00
2022-08-31T23:41:29.920Z,41.00
2022-08-31T23:44:22.923Z,41.00
2022-08-31T23:47:21.327Z,41.00
2022-08-31T23:50:14.998Z,41.00
2022-08-31T23:53:14.832Z,41.00
2022-08-31T23:56:10.984Z,41.00
2022-08-31T23:59:09.129Z,41.00
